• Join FlightAware (Why Join?)
  • Login
  • US Flag 
01:04AM EST


 

Airport Tracker/Info


-or-


 

Live Flight TrackerFlight Track Log ✈ N418DR ✈ 07-Feb-2014 ✈ KAPA - KPHX

Flight Track Log - Related Links

Times and Time Zones

All times are in EST time to prevent confusion due to time zone crossing. See the N418DR flight status page for this flight to view local times or setup timezone preferences in your user account.

Time Position Orientation Groundspeed Altitude Reporting Facility
EST Latitude Longitude Course Direction KTS MPH feet Rate Location/Type
04:13PM 39.5167 -104.8667 205° Southwest 156 180 7,700  Level Denver TRACON
04:14PM 39.4667 -104.8833 194° South 170 196 9,200 1,169 Climbing Denver TRACON
04:15PM 39.4167 -104.8833 180° South 187 215 10,000 992 Climbing Denver TRACON
04:16PM 39.3667 -104.8667 166° South 192 221 11,200 1,240 Climbing Denver TRACON
04:17PM 39.3167 -104.8667 180° South 184 212 12,500 1,253 Climbing Denver TRACON
04:18PM 39.2922 -104.8769 198° South 180 207 13,100 1,226 Climbing Denver Center
04:19PM 39.1835 -105.0194 205° Southwest  Level FlightAware Approximate
04:19PM 39.2419 -104.9014 201° Southwest 178 205 14,400  Level Denver Center
04:20PM 39.2103 -104.9456 227° Southwest 167 192 15,700 1,306 Climbing Denver Center
04:21PM 39.1831 -104.9956 235° Southwest 159 183 17,100 1,355 Climbing Denver Center
04:22PM 39.1586 -105.0356 232° Southwest 145 167 18,500 968 Climbing Denver Center
04:23PM 39.1339 -105.0686 226° Southwest 143 165 19,100 581 Climbing Denver Center
04:24PM 39.0856 -105.0947 203° Southwest 178 205 19,700 484 Climbing Denver Center
04:25PM 39.0161 -105.1353 204° Southwest 225 259 20,100 194 Climbing Denver Center
04:26PM 38.9539 -105.1722 205° Southwest 242 278 20,100  Level Denver Center
04:27PM 38.8900 -105.2097 205° Southwest 251 289 20,100  Level Denver Center
04:28PM 38.8256 -105.2478 205° Southwest 253 291 20,100  Level Denver Center
04:29PM 38.7494 -105.2919 204° Southwest 266 306 20,100  Level Denver Center
04:30PM 38.6853 -105.3286 204° Southwest 264 304 20,100  Level Denver Center
04:31PM 38.6300 -105.3608 204° Southwest 269 310 20,100  Level Denver Center
04:32PM 38.5642 -105.4419 224° Southwest 258 297 20,100 -48 Level Denver Center
04:33PM 38.5108 -105.5042 222° Southwest 250 288 20,000  Descending Denver Center
04:34PM 38.4594 -105.5647 223° Southwest 251 289 20,100 49 Climbing Denver Center
04:36PM 38.4092 -105.6242 223° Southwest 249 287 20,100 -48 Level Denver Center
04:37PM 38.3600 -105.6839 224° Southwest 246 283 20,000  Descending Denver Center
04:38PM 38.3067 -105.7444 222° Southwest 242 278 20,100  Climbing Denver Center
04:39PM 38.2506 -105.8100 223° Southwest 242 278 20,000 -48 Descending Denver Center
04:40PM 38.2031 -105.8664 223° Southwest 246 283 20,000 48 Level Denver Center
04:41PM 38.1486 -105.9308 223° Southwest 245 282 20,100 48 Climbing Denver Center
04:42PM 38.1036 -105.9822 222° Southwest 238 274 20,100  Level Denver Center
04:43PM 38.0431 -106.0489 221° Southwest 245 282 20,100  Level Denver Center
04:44PM 38.0022 -106.0961 222° Southwest 247 284 20,100 290 Level Denver Center
04:45PM 37.9419 -106.1661 222° Southwest 235 270 20,700 532 Climbing Denver Center
04:46PM 37.8992 -106.2164 223° Southwest 228 262 21,200 484 Climbing Denver Center
04:47PM 37.8506 -106.2744 223° Southwest 221 254 21,700 387 Climbing Denver Center
04:48PM 37.7964 -106.3317 220° Southwest 230 265 22,000 145 Climbing Denver Center
04:49PM 37.7517 -106.3842 223° Southwest 231 266 22,000 48 Level Denver Center
04:50PM 37.6939 -106.4469 221° Southwest 243 280 22,100 48 Climbing Denver Center
04:51PM 37.6472 -106.5014 223° Southwest 242 278 22,100 -48 Level Denver Center
04:52PM 37.5978 -106.5581 222° Southwest 245 282 22,000  Descending Denver Center
04:53PM 37.5392 -106.6214 221° Southwest 248 285 22,100  Climbing Denver Center
04:54PM 37.4914 -106.6783 223° Southwest 245 282 22,000 -48 Descending Denver Center
04:55PM 37.4344 -106.7406 221° Southwest 244 281 22,000  Level Denver Center
04:56PM 37.3867 -106.7931 221° Southwest 240 276 22,000  Level Denver Center
04:57PM 37.3325 -106.8561 223° Southwest 238 274 22,000  Level Denver Center
04:58PM 37.2703 -106.9244 221° Southwest 234 269 22,000 48 Level Denver Center
04:59PM 37.2242 -106.9764 222° Southwest 233 268 22,100 48 Climbing Denver Center
05:01PM 37.1789 -107.0283 222° Southwest 231 266 22,100  Level Denver Center
05:02PM 37.1247 -107.0878 221° Southwest 231 266 22,100  Level Denver Center
05:03PM 37.0800 -107.1386 222° Southwest 229 264 22,100  Level Denver Center
05:04PM 37.0344 -107.1886 221° Southwest 228 262 22,100  Level Denver Center
05:05PM 36.9817 -107.2458 221° Southwest 226 260 22,100  Level Denver Center
05:06PM 36.9461 -107.2861 222° Southwest 222 255 22,100  Level Denver Center
05:07PM 36.8872 -107.3514 222° Southwest 221 254 22,100 -48 Level Denver Center
05:08PM 36.8372 -107.4092 223° Southwest 220 253 22,000 -44 Descending Denver Center
05:09PM 36.7925 -107.4578 221° Southwest 221 254 22,000 44 Level Denver Center
05:10PM 36.7314 -107.5219 220° Southwest 223 257 22,100 48 Climbing Denver Center
05:11PM 36.6878 -107.5717 222° Southwest 223 257 22,100 -48 Level Denver Center
05:12PM 36.6361 -107.6289 222° Southwest 222 255 22,000  Descending Denver Center
05:13PM 36.5919 -107.6764 221° Southwest 221 254 22,100  Climbing Denver Center
05:14PM 36.5403 -107.7325 221° Southwest 220 253 22,000  Descending Denver Center
05:15PM 36.4964 -107.7794 221° Southwest 219 252 22,100 48 Climbing Denver Center
05:16PM 36.4453 -107.8353 221° Southwest 219 252 22,100 -48 Level Denver Center
05:17PM 36.4017 -107.8825 221° Southwest 218 251 22,000 -53 Descending Denver Center
05:18PM 36.3586 -107.9319 223° Southwest 217 250 22,000  Level Albuquerque Center
05:19PM 36.3153 -107.9786 221° Southwest 217 250 22,000  Level Albuquerque Center
05:20PM 36.2725 -108.0239 220° Southwest 213 245 22,000 -432 Level Albuquerque Center
05:21PM 36.2186 -108.0844 222° Southwest 226 260 21,100 -816 Descending Albuquerque Center
05:22PM 36.1692 -108.1381 221° Southwest 237 273 20,300 -774 Descending Albuquerque Center
05:23PM 36.1103 -108.2003 220° Southwest 244 281 19,500 -774 Descending Albuquerque Center
05:24PM 36.0592 -108.2547 221° Southwest 248 285 18,700 -726 Descending Albuquerque Center
05:25PM 35.9989 -108.3197 221° Southwest 253 291 18,000 -339 Descending Albuquerque Center
05:26PM 35.9483 -108.3733 221° Southwest 252 290 18,000  Level Albuquerque Center
05:27PM 35.8922 -108.4328 221° Southwest 244 281 18,000  Level Albuquerque Center
05:28PM 35.8464 -108.4822 221° Southwest 235 270 18,000  Level Albuquerque Center
05:30PM 35.7911 -108.5408 221° Southwest 233 268 18,000  Level Albuquerque Center
05:31PM 35.7428 -108.5914 220° Southwest 235 270 18,000  Level Albuquerque Center
05:32PM 35.6969 -108.6414 222° Southwest 232 267 18,000  Level Albuquerque Center
05:33PM 35.6419 -108.6981 220° Southwest 230 265 18,000  Level Albuquerque Center
05:34PM 35.5944 -108.7489 221° Southwest 233 268 18,000  Level Albuquerque Center
05:35PM 35.5381 -108.8081 220° Southwest 236 272 18,000  Level Albuquerque Center
05:36PM 35.4903 -108.8583 221° Southwest 236 272 18,000  Level Albuquerque Center
05:37PM 35.4458 -108.9236 230° Southwest 227 261 18,000  Level Albuquerque Center
05:38PM 35.4147 -108.9864 239° Southwest 225 259 18,000  Level Albuquerque Center
05:39PM 35.3750 -109.0581 236° Southwest 227 261 18,000  Level Albuquerque Center
05:40PM 35.3417 -109.1186 236° Southwest 226 260 18,000  Level Albuquerque Center
05:41PM 35.3078 -109.1786 235° Southwest 224 258 18,000  Level Albuquerque Center
05:42PM 35.2706 -109.2481 237° Southwest 221 254 18,000  Level Albuquerque Center
05:43PM 35.2367 -109.3086 236° Southwest 222 255 18,000  Level Albuquerque Center
05:44PM 35.1969 -109.3797 236° Southwest 225 259 18,000  Level Albuquerque Center
05:45PM 35.1633 -109.4408 236° Southwest 226 260 18,000  Level Albuquerque Center
05:46PM 35.1242 -109.5111 236° Southwest 225 259 18,000  Level Albuquerque Center
05:47PM 35.0906 -109.5725 236° Southwest 225 259 18,000  Level Albuquerque Center
05:48PM 35.0511 -109.6422 235° Southwest 225 259 18,000  Level Albuquerque Center
05:49PM 35.0172 -109.7036 236° Southwest 226 260 18,000  Level Albuquerque Center
05:50PM 34.9783 -109.7747 236° Southwest 226 260 18,000  Level Albuquerque Center
05:51PM 34.9436 -109.8358 235° Southwest 227 261 18,000  Level Albuquerque Center
05:52PM 34.9089 -109.8969 235° Southwest 228 262 18,000  Level Albuquerque Center
05:53PM 34.8683 -109.9697 236° Southwest 230 265 18,000  Level Albuquerque Center
05:54PM 34.8333 -110.0314 235° Southwest 231 266 18,000  Level Albuquerque Center
05:55PM 34.7922 -110.1044 236° Southwest 232 267 18,000  Level Albuquerque Center
05:56PM 34.7583 -110.1700 238° Southwest 237 273 18,000  Level Albuquerque Center
05:57PM 34.7378 -110.2503 253° West 222 255 18,000  Level Albuquerque Center
05:58PM 34.6992 -110.3089 231° Southwest 242 278 18,000  Level Albuquerque Center
05:59PM 34.6431 -110.3694 222° Southwest 244 281 18,000  Level Albuquerque Center
06:00PM 34.6014 -110.4308 231° Southwest 243 280 18,000  Level Albuquerque Center
06:02PM 34.5589 -110.4911 229° Southwest 244 281 18,000  Level Albuquerque Center
06:03PM 34.5075 -110.5594 228° Southwest 245 282 18,000  Level Albuquerque Center
06:04PM 34.4647 -110.6206 230° Southwest 241 277 18,000  Level Albuquerque Center
06:05PM 34.4192 -110.6808 228° Southwest 241 277 18,000  Level Albuquerque Center
06:06PM 34.3714 -110.7406 226° Southwest 245 282 18,000 -145 Level Albuquerque Center
06:07PM 34.3242 -110.8036 228° Southwest 251 289 17,700 -823 Descending Albuquerque Center
06:08PM 34.2775 -110.8703 230° Southwest 256 295 16,300 -1,355 Descending Albuquerque Center
06:09PM 34.2200 -110.9431 226° Southwest 252 290 14,900 -1,355 Descending Albuquerque Center
06:10PM 34.1767 -110.9953 225° Southwest 232 267 13,500 -1,317 Descending Albuquerque Center
06:11PM 34.1383 -111.0442 227° Southwest 216 249 12,200 -1,171 Descending Albuquerque Center
06:12PM 34.1017 -111.0936 228° Southwest 207 238 11,100 -629 Descending Albuquerque Center
06:13PM 34.0669 -111.1356 225° Southwest 191 220 10,900 -48 Descending Albuquerque Center
06:14PM 34.0358 -111.1742 226° Southwest 172 198 11,000 48 Climbing Albuquerque Center
06:15PM 34.0061 -111.2233 234° Southwest 174 200 11,000 -97 Level Albuquerque Center
06:16PM 33.9667 -111.2819 231° Southwest 185 213 10,800 -387 Descending Albuquerque Center
06:17PM 33.9306 -111.3358 231° Southwest 203 234 10,200 -435 Descending Albuquerque Center
06:18PM 33.8925 -111.3842 227° Southwest 197 227 9,900 -49 Descending Albuquerque Center
06:19PM 33.8614 -111.4206 224° Southwest 161 185 10,100 49 Climbing Albuquerque Center
06:20PM 33.8242 -111.4681 227° Southwest 191 220 10,000 -48 Descending Albuquerque Center
06:21PM 33.7911 -111.5094 226° Southwest 175 201 10,000  Level Albuquerque Center
06:22PM 33.7611 -111.5492 228° Southwest 162 186 10,000 -387 Level Albuquerque Center
06:23PM 33.7222 -111.6011 228° Southwest 174 200 9,200 -871 Descending Albuquerque Center
06:24PM 33.6714 -111.6272 203° Southwest 196 226 8,200 -968 Descending Albuquerque Center
06:25PM 33.6244 -111.6492 201° Southwest 181 208 7,200 -919 Descending Albuquerque Center
06:26PM 33.5778 -111.6767 206° Southwest 185 213 6,300 -871 Descending Albuquerque Center
06:27PM 33.5308 -111.7019 204° Southwest 184 212 5,400 -677 Descending Albuquerque Center
06:28PM 33.4881 -111.7286 207° Southwest 174 200 4,900 -242 Descending Albuquerque Center
06:29PM 33.4633 -111.7733 236° Southwest 165 190 4,900 -532 Level Albuquerque Center
06:30PM 33.4417 -111.8436 250° West 184 212 3,800 -1,161 Descending Albuquerque Center
06:31PM 33.4406 -111.9072 269° West 191 220 2,500 -968 Descending Albuquerque Center
06:32PM 33.4408 -111.9522 270° West 135 155 1,800 -629 Descending Albuquerque Center
06:34PM 33.4403 -111.9886 269° West 124 143 1,200 -581 Descending Albuquerque Center
06:36PM 33.4333 -112.0000 270° West  Level FlightAware Approximate